Time;durP1;ratioP1;P1;durP2;ratioP2;P2;SDS_P1;SDS_P2;PMS_P1;PMS_P2;Temp;Humidity;BMP_temperature;BMP_pressure;BME280_temperature;BME280_humidity;BME280_pressure;Samples;Min_cycle;Max_cycle;Signal;HPM_P1;HPM_P2
2021/12/03 00:00:07;;;;;;;7.47;3.45;;;1.30;88.50;;;;;;4975724;28;98451;-69
2021/12/03 00:02:34;;;;;;;5.65;3.67;;;1.30;88.50;;;;;;4975836;28;97856;-69
2021/12/03 00:05:02;;;;;;;9.20;3.40;;;1.20;88.60;;;;;;4974797;28;105450;-68
2021/12/03 00:07:29;;;;;;;5.57;3.20;;;1.20;88.50;;;;;;4957266;28;98931;-69
2021/12/03 00:09:57;;;;;;;6.38;4.03;;;1.20;88.60;;;;;;4957263;28;99300;-69
2021/12/03 00:12:25;;;;;;;8.18;3.63;;;1.20;88.70;;;;;;4974618;28;98972;-69
2021/12/03 00:14:51;;;;;;;4.95;3.83;;;1.20;88.80;;;;;;4974775;28;99030;-69
2021/12/03 00:17:19;;;;;;;6.22;3.50;;;1.20;88.80;;;;;;4957040;28;99512;-69
2021/12/03 00:19:45;;;;;;;7.63;3.40;;;1.20;88.90;;;;;;4941559;28;98609;-69
2021/12/03 00:22:12;;;;;;;10.20;3.88;;;1.20;88.90;;;;;;4957876;28;99012;-69
2021/12/03 00:24:39;;;;;;;6.50;3.50;;;1.20;88.80;;;;;;4956623;28;100464;-69
2021/12/03 00:27:07;;;;;;;5.63;3.53;;;1.20;89.20;;;;;;4975212;28;98760;-69
2021/12/03 00:29:34;;;;;;;6.75;3.63;;;1.20;88.70;;;;;;4975139;28;98530;-69
2021/12/03 00:32:01;;;;;;;6.03;3.97;;;1.20;88.80;;;;;;4974956;28;98497;-69
2021/12/03 00:34:28;;;;;;;10.18;4.22;;;1.20;89.20;;;;;;4974148;28;99800;-68
2021/12/03 00:36:55;;;;;;;5.13;3.88;;;1.20;89.20;;;;;;4974360;28;99682;-69
2021/12/03 00:39:22;;;;;;;9.63;4.18;;;1.20;89.20;;;;;;4974778;28;98582;-69
2021/12/03 00:41:56;;;;;;;7.45;4.05;;;1.20;89.20;;;;;;4974777;28;98697;-74
2021/12/03 00:44:24;;;;;;;8.70;4.20;;;1.30;89.90;;;;;;4956735;28;100482;-74
2021/12/03 00:46:51;;;;;;;7.47;4.55;;;1.30;89.60;;;;;;4973400;28;116809;-74
2021/12/03 00:49:18;;;;;;;4.90;3.75;;;1.30;89.50;;;;;;4974623;28;98687;-74
2021/12/03 00:51:45;;;;;;;8.88;4.20;;;1.40;89.30;;;;;;4941061;28;98142;-74
2021/12/03 00:54:13;;;;;;;6.40;4.20;;;1.40;89.10;;;;;;4974393;28;99274;-74
2021/12/03 00:56:40;;;;;;;6.50;3.88;;;1.40;89.00;;;;;;4939538;28;99964;-74
2021/12/03 00:59:07;;;;;;;7.38;3.90;;;1.40;88.80;;;;;;4972760;28;99367;-74
2021/12/03 01:01:35;;;;;;;10.90;3.90;;;1.40;88.80;;;;;;4940582;28;98582;-74
2021/12/03 01:04:02;;;;;;;5.38;4.15;;;1.50;89.10;;;;;;4973886;28;99161;-74
2021/12/03 01:06:29;;;;;;;7.60;4.00;;;1.50;88.90;;;;;;4972924;28;119418;-74
2021/12/03 01:08:56;;;;;;;4.95;3.97;;;1.50;88.90;;;;;;4974246;28;98530;-74
2021/12/03 01:11:23;;;;;;;5.93;4.28;;;1.50;88.90;;;;;;4974448;28;98956;-69
2021/12/03 01:13:51;;;;;;;8.88;4.75;;;1.60;88.80;;;;;;4972304;28;101046;-69
2021/12/03 01:16:18;;;;;;;6.55;4.53;;;1.60;88.80;;;;;;4956192;28;107380;-69
2021/12/03 01:18:45;;;;;;;5.75;4.20;;;1.70;88.60;;;;;;4974179;28;99047;-69
2021/12/03 01:21:14;;;;;;;5.65;4.60;;;1.70;88.60;;;;;;4974038;28;98627;-69
2021/12/03 01:23:41;;;;;;;7.85;4.68;;;1.70;88.60;;;;;;4955902;28;100877;-69
2021/12/03 01:26:08;;;;;;;9.68;5.40;;;1.80;88.70;;;;;;4955752;28;119070;-69
2021/12/03 01:28:35;;;;;;;10.25;5.78;;;1.80;88.90;;;;;;4972568;28;98602;-69
2021/12/03 01:31:03;;;;;;;8.95;5.38;;;1.80;88.90;;;;;;4973620;28;98549;-70
2021/12/03 01:33:30;;;;;;;13.00;5.38;;;1.80;88.80;;;;;;4973677;28;99035;-69
2021/12/03 01:35:57;;;;;;;10.45;5.80;;;1.90;89.10;;;;;;4956007;28;98800;-69
2021/12/03 01:38:24;;;;;;;7.90;5.82;;;1.90;89.10;;;;;;4974138;28;98426;-69
2021/12/03 01:40:52;;;;;;;12.18;6.20;;;2.00;89.00;;;;;;4956860;28;97878;-69
2021/12/03 01:43:22;;;;;;;12.15;6.20;;;2.00;88.90;;;;;;4973264;28;104005;-69
2021/12/03 01:45:53;;;;;;;8.82;5.68;;;2.00;89.20;;;;;;4955683;28;100068;-69
2021/12/03 01:48:20;;;;;;;11.98;5.70;;;2.10;89.00;;;;;;4955551;28;99357;-69
2021/12/03 01:50:49;;;;;;;11.80;6.13;;;2.10;88.70;;;;;;4973129;28;101167;-69
2021/12/03 01:53:21;;;;;;;12.05;7.32;;;2.10;88.60;;;;;;4955625;28;101456;-69
2021/12/03 01:55:48;;;;;;;10.00;6.03;;;2.20;88.50;;;;;;4973138;28;98922;-69
2021/12/03 01:58:16;;;;;;;11.00;5.95;;;2.20;88.40;;;;;;4955776;28;98641;-69
2021/12/03 02:00:51;;;;;;;10.27;5.90;;;2.20;88.30;;;;;;4973496;28;98562;-69
2021/12/03 02:03:22;;;;;;;10.82;5.97;;;2.20;88.30;;;;;;4973541;28;99064;-69
2021/12/03 02:05:49;;;;;;;11.57;5.82;;;2.20;88.20;;;;;;4973263;28;99104;-69
2021/12/03 02:08:16;;;;;;;8.77;5.95;;;2.20;88.00;;;;;;4973466;28;98573;-69
2021/12/03 02:10:44;;;;;;;14.60;6.03;;;2.20;88.10;;;;;;4972681;28;109235;-69
2021/12/03 02:13:12;;;;;;;9.07;5.57;;;2.20;88.00;;;;;;4972417;28;100179;-69
2021/12/03 02:15:41;;;;;;;11.90;5.50;;;2.20;88.00;;;;;;4973057;28;100113;-69
2021/12/03 02:18:09;;;;;;;12.05;6.43;;;2.20;87.90;;;;;;4973205;28;98537;-69
2021/12/03 02:20:54;;;;;;;14.63;6.28;;;2.30;88.00;;;;;;4955545;28;98671;-69
2021/12/03 02:23:21;;;;;;;;;;;2.30;88.20;;;;;;4973544;28;99084;-69
2021/12/03 02:25:50;;;;;;;17.02;7.70;;;2.20;88.20;;;;;;4972949;28;98598;-69
2021/12/03 02:28:19;;;;;;;11.82;7.90;;;2.30;88.40;;;;;;4973451;28;98564;-69
2021/12/03 02:30:48;;;;;;;12.85;8.85;;;2.30;88.20;;;;;;4973727;28;97713;-69
2021/12/03 02:33:15;;;;;;;13.05;9.18;;;2.30;88.10;;;;;;4954753;28;104272;-69
2021/12/03 02:35:44;;;;;;;16.13;10.40;;;2.30;88.10;;;;;;4972735;28;98770;-69
2021/12/03 02:38:14;;;;;;;17.42;9.90;;;2.30;88.20;;;;;;4972073;28;99307;-69
2021/12/03 02:40:42;;;;;;;17.95;11.23;;;2.40;88.00;;;;;;4973020;28;98539;-69
2021/12/03 02:43:09;;;;;;;18.40;11.75;;;2.40;88.10;;;;;;4971978;28;99171;-69
2021/12/03 02:45:36;;;;;;;25.42;13.15;;;2.40;88.10;;;;;;4954753;28;98998;-69
2021/12/03 02:48:04;;;;;;;19.83;13.95;;;2.40;88.40;;;;;;4972263;28;98419;-69
2021/12/03 02:50:31;;;;;;;18.00;13.90;;;2.50;88.60;;;;;;4972330;28;98581;-69
2021/12/03 02:52:59;;;;;;;23.35;14.68;;;2.50;88.80;;;;;;4953439;28;114956;-69
2021/12/03 02:55:27;;;;;;;25.30;14.63;;;2.50;88.20;;;;;;4972371;28;98939;-74
2021/12/03 02:57:54;;;;;;;22.15;15.63;;;2.50;88.10;;;;;;4972351;28;98463;-74
2021/12/03 03:00:24;;;;;;;18.42;14.55;;;2.60;88.00;;;;;;4972363;28;98496;-74
2021/12/03 03:02:52;;;;;;;21.60;15.73;;;2.60;87.60;;;;;;4971558;28;99905;-74
2021/12/03 03:05:21;;;;;;;21.42;15.85;;;2.50;87.90;;;;;;4954030;28;99537;-75
2021/12/03 03:07:50;;;;;;;24.63;15.88;;;2.50;87.50;;;;;;4972521;28;98604;-74
2021/12/03 03:10:28;;;;;;;24.85;16.95;;;2.60;87.80;;;;;;4971941;28;98505;-75
2021/12/03 03:12:55;;;;;;;21.67;16.45;;;2.60;87.50;;;;;;4954134;28;100271;-74
2021/12/03 03:15:23;;;;;;;20.90;14.77;;;2.60;87.60;;;;;;4969843;28;111563;-74
2021/12/03 03:17:50;;;;;;;21.42;14.63;;;2.60;87.80;;;;;;4954864;28;98580;-74
2021/12/03 03:20:18;;;;;;;23.73;16.38;;;2.60;87.60;;;;;;4941777;28;97799;-74
2021/12/03 03:22:47;;;;;;;24.08;16.15;;;2.60;87.60;;;;;;4975345;28;99075;-74
2021/12/03 03:25:17;;;;;;;24.88;15.00;;;2.50;87.20;;;;;;4974966;28;98851;-74
2021/12/03 03:27:45;;;;;;;22.58;15.75;;;2.50;87.30;;;;;;4957331;28;99178;-74
2021/12/03 03:30:15;;;;;;;21.02;15.75;;;2.50;87.20;;;;;;4957145;28;98637;-74
2021/12/03 03:32:43;;;;;;;20.67;15.63;;;2.50;87.00;;;;;;4986797;28;99055;-74
2021/12/03 03:35:11;;;;;;;22.08;15.63;;;2.50;86.90;;;;;;4976432;28;112196;-74
2021/12/03 03:37:41;;;;;;;25.77;15.90;;;2.40;87.20;;;;;;4977033;28;98982;-74
2021/12/03 03:40:10;;;;;;;26.55;17.23;;;2.50;87.20;;;;;;4960853;28;98578;-74
2021/12/03 03:42:38;;;;;;;23.52;15.63;;;2.40;87.10;;;;;;4976955;28;99149;-74
2021/12/03 03:45:09;;;;;;;27.27;17.30;;;2.40;87.10;;;;;;4977350;28;98808;-74
2021/12/03 03:47:37;;;;;;;27.65;17.63;;;2.40;87.60;;;;;;4993714;28;98526;-74
2021/12/03 03:50:05;;;;;;;24.27;16.83;;;2.40;87.60;;;;;;4977086;28;100439;-75
2021/12/03 03:52:33;;;;;;;21.40;16.75;;;2.30;87.70;;;;;;4976219;28;100920;-74
2021/12/03 03:55:00;;;;;;;28.75;17.83;;;2.40;88.30;;;;;;4994461;28;99547;-74
2021/12/03 03:57:27;;;;;;;22.63;18.00;;;2.40;87.40;;;;;;4994257;28;107093;-74
2021/12/03 03:59:54;;;;;;;25.30;18.95;;;2.40;87.70;;;;;;4994927;28;98500;-74
2021/12/03 04:02:21;;;;;;;31.05;19.15;;;2.30;87.40;;;;;;4979395;28;99220;-74
2021/12/03 04:04:49;;;;;;;25.02;18.17;;;2.30;87.40;;;;;;4957246;28;98749;-75
2021/12/03 04:07:16;;;;;;;27.08;18.35;;;2.30;87.10;;;;;;4973996;28;98406;-74
2021/12/03 04:09:43;;;;;;;27.42;17.95;;;2.40;87.50;;;;;;4940706;28;98440;-74
2021/12/03 04:12:12;;;;;;;27.35;17.75;;;2.30;87.50;;;;;;4974201;28;99078;-74
2021/12/03 04:14:38;;;;;;;23.00;18.13;;;2.30;87.40;;;;;;4974547;28;98838;-74
2021/12/03 04:17:05;;;;;;;23.95;18.83;;;2.30;87.30;;;;;;4956099;28;104978;-74
2021/12/03 04:19:32;;;;;;;28.45;19.10;;;2.30;87.30;;;;;;4957364;28;98565;-74
2021/12/03 04:22:00;;;;;;;25.55;18.20;;;2.30;87.40;;;;;;4974425;28;99196;-74
2021/12/03 04:24:27;;;;;;;23.85;17.98;;;2.30;87.20;;;;;;4974051;28;98858;-74
2021/12/03 04:26:54;;;;;;;24.88;18.92;;;2.30;87.20;;;;;;4974570;28;98602;-75
2021/12/03 04:29:21;;;;;;;26.00;18.13;;;2.30;87.30;;;;;;4973736;28;98944;-74
2021/12/03 04:31:48;;;;;;;27.05;17.98;;;2.30;87.10;;;;;;4973751;28;99053;-74
2021/12/03 04:34:15;;;;;;;25.90;17.17;;;2.30;87.10;;;;;;4956369;28;100680;-75
2021/12/03 04:36:42;;;;;;;28.10;18.98;;;2.30;87.10;;;;;;4956872;28;98552;-74
2021/12/03 04:39:09;;;;;;;25.80;18.13;;;2.30;86.90;;;;;;4974166;28;98431;-74
2021/12/03 04:41:36;;;;;;;27.33;18.80;;;2.30;86.90;;;;;;4956176;28;99778;-74
2021/12/03 04:44:03;;;;;;;26.05;17.33;;;2.40;86.80;;;;;;4973838;28;99677;-75
2021/12/03 04:46:30;;;;;;;22.73;17.45;;;2.30;86.70;;;;;;4956586;28;99012;-74
2021/12/03 04:48:56;;;;;;;24.17;17.83;;;2.30;86.70;;;;;;4974212;28;98585;-74
2021/12/03 04:51:23;;;;;;;25.38;17.67;;;2.30;86.70;;;;;;4973456;28;99064;-74
2021/12/03 04:53:50;;;;;;;28.55;18.35;;;2.30;86.80;;;;;;4956369;28;98896;-75
2021/12/03 04:56:17;;;;;;;26.52;18.45;;;2.30;86.70;;;;;;4973951;28;98921;-69
2021/12/03 04:58:45;;;;;;;22.98;18.35;;;2.30;86.80;;;;;;4974067;28;99077;-69
2021/12/03 05:01:12;;;;;;;26.60;18.77;;;2.20;86.70;;;;;;4973239;28;99032;-69
2021/12/03 05:03:39;;;;;;;21.33;16.58;;;2.20;87.00;;;;;;4973598;28;98944;-70
2021/12/03 05:06:09;;;;;;;26.48;17.70;;;2.30;86.80;;;;;;4955069;28;99223;-69
2021/12/03 05:08:36;;;;;;;22.13;16.10;;;2.30;86.90;;;;;;4956867;28;98743;-69
2021/12/03 05:11:03;;;;;;;21.80;17.10;;;2.20;86.80;;;;;;4955379;28;106880;-69
2021/12/03 05:13:33;;;;;;;22.02;16.23;;;2.20;87.10;;;;;;4973287;28;99024;-69
2021/12/03 05:16:01;;;;;;;21.98;16.67;;;2.20;86.60;;;;;;4973477;28;98498;-69
2021/12/03 05:18:29;;;;;;;23.90;17.15;;;2.20;86.90;;;;;;4956064;28;98590;-69
2021/12/03 05:21:00;;;;;;;23.40;16.83;;;2.20;86.90;;;;;;4955976;28;99197;-69
2021/12/03 05:23:29;;;;;;;20.90;17.02;;;2.20;86.90;;;;;;4973333;28;98965;-69
2021/12/03 05:25:56;;;;;;;24.23;17.70;;;2.20;87.10;;;;;;4939558;28;98509;-69
2021/12/03 05:28:25;;;;;;;26.20;17.50;;;2.20;87.10;;;;;;4973460;28;98646;-69
2021/12/03 05:30:52;;;;;;;21.88;17.27;;;2.20;87.20;;;;;;4972464;28;100013;-69
2021/12/03 05:33:20;;;;;;;20.65;16.45;;;2.20;87.20;;;;;;4972866;28;99686;-69
2021/12/03 05:35:49;;;;;;;22.95;17.85;;;2.20;87.10;;;;;;4973526;28;98424;-69
2021/12/03 05:38:17;;;;;;;22.30;17.58;;;2.20;87.20;;;;;;4955391;28;98592;-69
2021/12/03 05:40:45;;;;;;;21.50;16.85;;;2.20;87.80;;;;;;4970565;28;119554;-69
2021/12/03 05:43:15;;;;;;;20.65;16.70;;;2.20;88.00;;;;;;4973091;28;99040;-69
2021/12/03 05:45:42;;;;;;;25.02;17.80;;;2.20;87.80;;;;;;4955394;28;98506;-69
2021/12/03 05:48:09;;;;;;;20.90;16.48;;;2.20;87.90;;;;;;4973849;28;97793;-69
2021/12/03 05:50:36;;;;;;;23.10;18.20;;;2.30;87.90;;;;;;4954743;28;100243;-69
2021/12/03 05:53:03;;;;;;;20.95;16.88;;;2.30;88.30;;;;;;4954055;28;124631;-69
2021/12/03 05:55:30;;;;;;;20.17;16.67;;;2.40;88.00;;;;;;4955003;28;99313;-69
2021/12/03 05:57:57;;;;;;;26.63;17.08;;;2.40;88.00;;;;;;4973290;28;98881;-69
2021/12/03 06:00:35;;;;;;;22.75;18.30;;;2.40;88.50;;;;;;4975229;28;99067;-69
2021/12/03 06:03:03;;;;;;;21.55;17.40;;;2.50;88.10;;;;;;4991667;28;98942;-69
2021/12/03 06:05:31;;;;;;;22.40;16.83;;;2.50;88.00;;;;;;4957005;28;98629;-69
2021/12/03 06:07:58;;;;;;;21.08;16.65;;;2.50;87.50;;;;;;4992597;28;98514;-69
2021/12/03 06:10:26;;;;;;;18.73;15.82;;;2.50;87.80;;;;;;4991668;28;99771;-69
2021/12/03 06:12:54;;;;;;;21.20;18.15;;;2.50;88.00;;;;;;4992686;28;99813;-69
2021/12/03 06:15:21;;;;;;;21.65;17.77;;;2.50;87.70;;;;;;4974893;28;98552;-69
2021/12/03 06:17:48;;;;;;;22.08;17.00;;;2.50;88.30;;;;;;4991188;28;98700;-69
2021/12/03 06:20:17;;;;;;;26.52;18.35;;;2.50;87.80;;;;;;4992065;28;99945;-69
2021/12/03 06:22:45;;;;;;;21.92;17.20;;;2.50;87.70;;;;;;4991911;28;99575;-69
2021/12/03 06:25:17;;;;;;;21.30;16.73;;;2.50;88.10;;;;;;4992669;28;98521;-69
2021/12/03 06:27:44;;;;;;;21.15;17.10;;;2.50;87.70;;;;;;4974032;28;98640;-69
2021/12/03 06:30:15;;;;;;;25.00;17.15;;;2.50;88.10;;;;;;4990517;28;100397;-69
2021/12/03 06:32:41;;;;;;;21.50;17.58;;;2.60;88.10;;;;;;4991830;28;103495;-70
2021/12/03 06:35:11;;;;;;;23.83;17.02;;;2.60;88.00;;;;;;4992570;28;98655;-69
2021/12/03 06:37:38;;;;;;;21.35;17.27;;;2.60;87.50;;;;;;4991121;28;97929;-69
2021/12/03 06:40:09;;;;;;;22.17;16.52;;;2.70;87.10;;;;;;4974039;28;104275;-69
2021/12/03 06:42:36;;;;;;;24.48;16.85;;;2.70;86.80;;;;;;4991480;28;99857;-75
2021/12/03 06:45:06;;;;;;;23.08;17.98;;;2.70;86.90;;;;;;4991795;28;99297;-75
2021/12/03 06:47:34;;;;;;;24.65;15.73;;;2.70;86.90;;;;;;4974022;28;98544;-75
2021/12/03 06:50:03;;;;;;;21.20;16.30;;;2.70;86.70;;;;;;4991601;28;106301;-75
2021/12/03 06:52:31;;;;;;;21.50;16.77;;;2.70;86.90;;;;;;4973205;28;98978;-75
2021/12/03 06:55:02;;;;;;;27.65;16.10;;;2.70;87.20;;;;;;4974379;28;98800;-75
2021/12/03 06:57:29;;;;;;;23.65;15.35;;;2.70;87.30;;;;;;4973948;28;98485;-75
2021/12/03 06:59:57;;;;;;;24.27;16.33;;;2.70;87.60;;;;;;4991747;28;100126;-75
2021/12/03 07:02:24;;;;;;;25.08;15.32;;;2.70;87.20;;;;;;4991949;28;98766;-75
2021/12/03 07:04:51;;;;;;;17.75;13.95;;;2.70;87.30;;;;;;4991897;28;98527;-75
2021/12/03 07:07:18;;;;;;;22.10;15.40;;;2.70;87.20;;;;;;4991951;28;99018;-75
2021/12/03 07:09:45;;;;;;;21.13;14.82;;;2.70;87.30;;;;;;4956686;28;100941;-75
2021/12/03 07:12:13;;;;;;;23.35;16.45;;;2.80;87.50;;;;;;4991902;28;99674;-75
2021/12/03 07:14:40;;;;;;;19.83;14.40;;;2.80;87.30;;;;;;4991803;28;98951;-75
2021/12/03 07:17:07;;;;;;;21.67;14.77;;;2.80;87.00;;;;;;4992113;28;99116;-75
2021/12/03 07:19:34;;;;;;;19.35;14.02;;;2.90;87.40;;;;;;4973242;28;101736;-75
2021/12/03 07:22:01;;;;;;;21.17;14.70;;;2.90;87.20;;;;;;4991699;28;98966;-75
2021/12/03 07:24:28;;;;;;;20.70;13.55;;;3.00;87.70;;;;;;4992034;28;98499;-75
2021/12/03 07:26:55;;;;;;;19.55;14.52;;;3.00;87.50;;;;;;4992348;28;97764;-76
2021/12/03 07:29:22;;;;;;;19.55;14.30;;;3.10;87.50;;;;;;4991100;28;108831;-69
2021/12/03 07:31:49;;;;;;;21.02;14.32;;;3.20;87.40;;;;;;4990668;28;106336;-69
2021/12/03 07:34:17;;;;;;;24.23;15.20;;;3.20;87.60;;;;;;4989862;28;99713;-69
2021/12/03 07:36:43;;;;;;;19.05;13.60;;;3.30;87.50;;;;;;4973683;28;98606;-69
2021/12/03 07:39:11;;;;;;;20.65;14.05;;;3.40;87.30;;;;;;4973623;28;99238;-69
2021/12/03 07:41:40;;;;;;;23.35;14.52;;;3.40;87.30;;;;;;4991019;28;98936;-76
2021/12/03 07:44:09;;;;;;;25.17;15.65;;;3.50;87.30;;;;;;4991367;28;98566;-76
2021/12/03 07:46:36;;;;;;;24.08;15.07;;;3.50;87.00;;;;;;4991363;28;98551;-76
2021/12/03 07:49:03;;;;;;;25.45;16.15;;;3.60;86.80;;;;;;4991018;28;107515;-76
2021/12/03 07:51:32;;;;;;;19.92;14.48;;;3.60;86.80;;;;;;4973824;28;99353;-76
2021/12/03 07:53:59;;;;;;;27.42;15.75;;;3.70;86.70;;;;;;4974022;28;98789;-76
2021/12/03 07:56:26;;;;;;;23.02;14.70;;;3.70;86.10;;;;;;4991439;28;98513;-76
2021/12/03 07:58:53;;;;;;;21.98;15.13;;;3.70;86.30;;;;;;4990428;28;99861;-76
2021/12/03 08:01:20;;;;;;;19.10;15.35;;;3.70;86.50;;;;;;4956631;28;104327;-76
2021/12/03 08:03:47;;;;;;;24.60;15.02;;;3.80;87.00;;;;;;4973664;28;98418;-76
2021/12/03 08:06:14;;;;;;;22.15;15.20;;;3.80;87.00;;;;;;4994568;28;98511;-76
2021/12/03 08:08:41;;;;;;;19.23;14.30;;;3.80;86.40;;;;;;4994180;28;99064;-76
2021/12/03 08:11:08;;;;;;;22.15;15.90;;;3.80;86.10;;;;;;4993905;28;111556;-76
2021/12/03 08:13:36;;;;;;;20.88;14.68;;;3.90;85.80;;;;;;4994421;28;98918;-76
2021/12/03 08:16:03;;;;;;;24.95;14.88;;;3.90;85.30;;;;;;4994926;28;97745;-76
2021/12/03 08:18:31;;;;;;;23.02;15.75;;;3.90;85.40;;;;;;4994424;28;98954;-76
2021/12/03 08:20:58;;;;;;;25.23;16.25;;;3.90;85.30;;;;;;4993937;28;98907;-77
2021/12/03 08:23:25;;;;;;;27.50;17.08;;;3.90;85.40;;;;;;4994059;28;99276;-77
2021/12/03 08:25:52;;;;;;;26.60;16.95;;;3.90;85.40;;;;;;4994335;28;98869;-77
2021/12/03 08:28:20;;;;;;;26.00;15.95;;;3.90;85.40;;;;;;4992247;28;100457;-76
2021/12/03 08:30:47;;;;;;;27.00;17.80;;;3.90;85.30;;;;;;4993323;28;105124;-76
2021/12/03 08:33:16;;;;;;;26.20;16.80;;;4.00;85.20;;;;;;4994200;28;98506;-77
2021/12/03 08:35:43;;;;;;;25.83;17.40;;;4.00;85.80;;;;;;4976328;28;98521;-70
2021/12/03 08:38:10;;;;;;;25.30;18.77;;;4.00;85.60;;;;;;4994031;28;99152;-69
2021/12/03 08:40:57;;;;;;;27.58;17.40;;;4.10;85.90;;;;;;4979410;28;99475;-70
2021/12/03 08:43:25;;;;;;;30.63;18.40;;;4.10;85.20;;;;;;4994239;28;98480;-69
2021/12/03 08:45:54;;;;;;;26.92;16.58;;;4.10;85.40;;;;;;4992956;28;98535;-70
2021/12/03 08:48:23;;;;;;;27.95;17.88;;;4.20;85.50;;;;;;4993198;28;99889;-70
2021/12/03 08:56:26;;;;;;;30.15;19.75;;;4.20;85.10;;;;;;4994229;28;98549;-69
2021/12/03 08:58:53;;;;;;;29.55;19.08;;;4.30;85.10;;;;;;4958771;28;117230;-70
2021/12/03 09:01:20;;;;;;;34.90;20.08;;;4.40;84.90;;;;;;4959445;28;99083;-70
2021/12/03 09:03:47;;;;;;;29.40;19.52;;;4.40;84.30;;;;;;4959376;28;98521;-70
2021/12/03 09:06:15;;;;;;;34.25;21.13;;;4.50;84.60;;;;;;4992472;28;97892;-69
2021/12/03 09:08:41;;;;;;;36.78;21.55;;;4.50;84.30;;;;;;4975588;28;99336;-70
2021/12/03 09:11:09;;;;;;;31.50;20.40;;;4.50;84.60;;;;;;4993002;28;98840;-70
2021/12/03 09:13:37;;;;;;;36.58;22.45;;;4.60;84.70;;;;;;4975173;28;99794;-70
2021/12/03 09:16:08;;;;;;;39.00;22.15;;;4.70;84.30;;;;;;4974179;28;98548;-70
2021/12/03 09:18:38;;;;;;;38.05;22.38;;;4.70;84.20;;;;;;4993459;28;99196;-69
2021/12/03 09:21:30;;;;;;;35.70;22.02;;;4.80;83.90;;;;;;4978327;28;99158;-69
2021/12/03 09:26:33;;;;;;;31.92;20.48;;;4.80;83.80;;;;;;4975353;28;98583;-77
2021/12/03 09:29:27;;;;;;;41.47;24.23;;;4.90;83.70;;;;;;4992796;28;99376;-77
2021/12/03 09:31:48;;;;;;;41.85;20.65;;;4.90;83.80;;;;;;4992738;28;98969;-77
2021/12/03 09:34:16;;;;;;;35.47;21.17;;;4.90;83.40;;;;;;4993221;28;98492;-77
2021/12/03 09:36:44;;;;;;;38.65;21.95;;;4.90;83.50;;;;;;4974994;28;98639;-77
2021/12/03 09:39:19;;;;;;;35.42;21.02;;;4.90;83.70;;;;;;4992511;28;99980;-77
2021/12/03 09:41:47;;;;;;;33.90;20.80;;;5.00;84.00;;;;;;4974856;28;100931;-77
2021/12/03 09:44:16;;;;;;;39.65;21.30;;;5.00;84.00;;;;;;4991423;28;98612;-77
2021/12/03 09:46:43;;;;;;;32.95;20.33;;;5.00;84.00;;;;;;4993001;28;98879;-77
2021/12/03 09:49:24;;;;;;;33.72;20.60;;;5.10;83.60;;;;;;4992303;28;99046;-77
2021/12/03 09:56:59;;;;;;;38.58;19.58;;;5.20;82.90;;;;;;4976603;28;97859;-77
2021/12/03 10:00:03;;;;;;;39.35;21.02;;;5.20;83.00;;;;;;4975121;28;99159;-77
2021/12/03 10:14:49;;;;;;;41.50;21.05;;;5.40;82.30;;;;;;4990669;28;100187;-77
2021/12/03 10:18:02;;;;;;;37.78;19.83;;;5.40;82.00;;;;;;4981989;28;98590;-77
2021/12/03 10:47:06;;;;;;;27.98;15.75;;;5.90;80.30;;;;;;4991408;28;101850;-70
2021/12/03 10:58:40;;;;;;;28.05;14.80;;;5.90;79.30;;;;;;4991716;28;98878;-76
2021/12/03 11:18:09;;;;;;;24.50;11.38;;;6.00;79.00;;;;;;4975424;28;99197;-76
2021/12/03 11:25:47;;;;;;;24.65;10.60;;;6.00;79.10;;;;;;4991608;28;98818;-69
2021/12/03 11:29:01;;;;;;;19.58;8.23;;;6.10;78.00;;;;;;4976846;28;99828;-69
2021/12/03 11:54:59;;;;;;;14.40;6.63;;;6.00;78.60;;;;;;4995278;28;99102;-69
2021/12/03 11:58:07;;;;;;;13.50;5.32;;;6.00;78.10;;;;;;4994410;28;99169;-69
2021/12/03 12:20:27;;;;;;;10.95;4.85;;;6.10;78.00;;;;;;4994786;28;98490;-78
2021/12/03 12:23:45;;;;;;;8.77;4.68;;;6.00;78.80;;;;;;4994235;28;98471;-76
2021/12/03 12:45:36;;;;;;;12.18;5.30;;;5.70;81.00;;;;;;4995303;28;97797;-70
2021/12/03 12:49:56;;;;;;;13.55;5.75;;;5.60;82.00;;;;;;4994345;28;99221;-70
2021/12/03 14:48:37;;;;;;;12.63;6.38;;;5.90;82.20;;;;;;4993164;28;98501;-76
2021/12/03 14:56:21;;;;;;;9.45;6.53;;;5.90;82.80;;;;;;4993060;28;98543;-76
2021/12/03 14:59:08;;;;;;;13.93;6.40;;;6.00;81.90;;;;;;4992705;28;98595;-76
2021/12/03 15:01:46;;;;;;;12.25;5.85;;;6.00;81.70;;;;;;4974299;28;100268;-76
2021/12/03 15:09:37;;;;;;;11.73;6.50;;;6.10;81.50;;;;;;4992498;28;98403;-69
2021/12/03 15:15:51;;;;;;;10.32;6.53;;;6.00;81.70;;;;;;4995939;28;100612;-69
2021/12/03 15:25:29;;;;;;;9.18;6.10;;;6.10;82.00;;;;;;4997941;28;123800;-70
2021/12/03 15:30:52;;;;;;;13.93;6.35;;;6.10;82.10;;;;;;4999277;28;97667;-76
2021/12/03 15:33:26;;;;;;;9.18;6.50;;;6.10;82.30;;;;;;4965889;28;99040;-76
2021/12/03 15:35:58;;;;;;;;;;;6.10;82.30;;;;;;4980927;28;98726;-70
2021/12/03 15:55:13;;;;;;;9.15;7.03;;;6.30;82.70;;;;;;4998026;28;99127;-76
2021/12/03 16:08:25;;;;;;;9.07;7.20;;;6.20;82.90;;;;;;4979280;28;115779;-76
2021/12/03 16:11:07;;;;;;;8.80;7.10;;;6.20;83.10;;;;;;4998388;28;98567;-70
2021/12/03 16:16:47;;;;;;;10.18;7.10;;;6.20;83.30;;;;;;4998008;28;99077;-76
2021/12/03 16:19:35;;;;;;;7.80;6.93;;;6.30;82.90;;;;;;4997868;28;98845;-70
2021/12/03 16:22:28;;;;;;;9.30;7.53;;;6.30;82.70;;;;;;4998575;28;98579;-69
2021/12/03 16:25:08;;;;;;;8.55;6.97;;;6.30;83.20;;;;;;4998177;28;98562;-70
2021/12/03 16:52:34;;;;;;;10.20;9.15;;;6.30;83.50;;;;;;4994801;28;98893;-77
2021/12/03 16:55:12;;;;;;;9.50;8.50;;;6.30;83.00;;;;;;4994820;28;98824;-76
2021/12/03 16:57:40;;;;;;;9.88;8.88;;;6.40;83.30;;;;;;4994553;28;98512;-76
2021/12/03 17:00:37;;;;;;;10.50;9.40;;;6.40;83.10;;;;;;4975184;28;116241;-76
2021/12/03 17:03:10;;;;;;;13.23;9.80;;;6.40;83.40;;;;;;4993465;28;102322;-76
2021/12/03 17:13:53;;;;;;;11.07;9.45;;;6.40;83.50;;;;;;4959970;28;101644;-69
2021/12/03 17:30:00;;;;;;;13.23;11.45;;;6.40;84.30;;;;;;4993033;28;100629;-76
2021/12/03 17:44:18;;;;;;;14.13;12.73;;;6.30;85.10;;;;;;4989923;28;99080;-69
2021/12/03 17:46:32;;;;;;;14.68;12.85;;;6.30;85.60;;;;;;4993058;28;98908;-70
2021/12/03 17:49:04;;;;;;;15.25;12.77;;;6.30;85.20;;;;;;4992732;28;98538;-75
2021/12/03 17:56:35;;;;;;;16.35;13.52;;;6.40;86.80;;;;;;4992471;28;107434;-74
2021/12/03 17:59:20;;;;;;;17.10;13.70;;;6.40;86.10;;;;;;4992911;28;98824;-76
2021/12/03 18:02:18;;;;;;;17.02;13.80;;;6.40;85.70;;;;;;4993196;28;98492;-73
2021/12/03 18:04:44;;;;;;;15.93;13.50;;;6.40;85.80;;;;;;4992450;28;99054;-74
2021/12/03 18:07:23;;;;;;;17.80;14.05;;;6.40;86.00;;;;;;4973448;28;100308;-70
2021/12/03 18:15:56;;;;;;;15.95;14.10;;;6.40;86.40;;;;;;4992199;28;99366;-69
2021/12/03 18:56:18;;;;;;;17.05;14.60;;;6.60;85.10;;;;;;4992118;28;98595;-69
2021/12/03 18:58:52;;;;;;;19.80;15.77;;;6.60;84.90;;;;;;4991938;28;99332;-69
2021/12/03 19:01:24;;;;;;;18.20;14.77;;;6.60;85.40;;;;;;4991754;28;98826;-69
2021/12/03 19:06:35;;;;;;;16.60;13.93;;;6.70;84.90;;;;;;4992085;28;97810;-75
2021/12/03 19:09:07;;;;;;;18.60;15.80;;;6.70;84.90;;;;;;4990962;28;99193;-69
2021/12/03 19:11:41;;;;;;;20.95;15.98;;;6.70;85.00;;;;;;4991675;28;99013;-69
2021/12/03 19:14:08;;;;;;;;;;;6.70;84.90;;;;;;4958850;28;99868;-76
2021/12/03 19:16:36;;;;;;;18.65;15.20;;;6.70;85.10;;;;;;4993731;28;98619;-75
2021/12/03 19:19:04;;;;;;;19.42;15.45;;;6.70;84.80;;;;;;4973632;28;99161;-69
2021/12/03 19:21:39;;;;;;;20.63;15.98;;;6.70;84.70;;;;;;4973516;28;100242;-75
2021/12/03 19:24:10;;;;;;;21.52;17.20;;;6.70;84.90;;;;;;4984937;28;98533;-76
2021/12/03 19:26:45;;;;;;;22.45;16.15;;;6.80;85.10;;;;;;4977809;28;98815;-75
2021/12/03 19:29:17;;;;;;;22.75;17.77;;;6.80;84.50;;;;;;4971691;28;99043;-74
2021/12/03 19:31:47;;;;;;;20.50;16.27;;;6.80;85.10;;;;;;4971949;28;98818;-75
2021/12/03 19:34:15;;;;;;;23.80;16.60;;;6.80;84.70;;;;;;4970482;28;98681;-75
2021/12/03 19:36:45;;;;;;;25.13;18.08;;;6.80;85.00;;;;;;4970421;28;98571;-77
2021/12/03 19:39:15;;;;;;;23.50;17.00;;;6.80;85.00;;;;;;4970970;28;99811;-75
2021/12/03 19:44:50;;;;;;;24.55;18.27;;;6.80;84.80;;;;;;4981006;28;98517;-77
2021/12/03 19:47:20;;;;;;;26.02;18.95;;;6.80;84.80;;;;;;4983046;28;98424;-76
2021/12/03 19:50:05;;;;;;;25.87;19.87;;;6.80;85.50;;;;;;4982029;28;99259;-75
2021/12/03 19:52:46;;;;;;;25.65;18.27;;;6.80;85.00;;;;;;4982257;28;98963;-75
2021/12/03 19:55:14;;;;;;;26.42;19.10;;;6.80;84.90;;;;;;4983620;28;98595;-76
2021/12/03 19:57:41;;;;;;;23.92;17.45;;;6.80;85.00;;;;;;4991414;28;97914;-76
2021/12/03 20:00:08;;;;;;;26.70;18.00;;;6.80;85.30;;;;;;4972808;28;99105;-76
2021/12/03 20:02:40;;;;;;;26.85;18.70;;;6.80;85.00;;;;;;4973456;28;98897;-75
2021/12/03 20:05:10;;;;;;;26.75;18.75;;;6.80;85.20;;;;;;4956721;28;99325;-76